Airfield :
LOGIN :

Register | Disclaimer

   EN    FR    IT 

 










Legend :    VFR   Marginal VFR   IFR   Intensive IFR   Very Intensive IFR
Visi :
Ceiling :
>= 8 km
>= 3000ft
5 to 8 km
1000 to 3000 ft
1500m to 5 km
500 to 1000 ft
800 to 1500m
200 to 500 ft
< 800m
< 200 ft
Symbols :   Thunderstorms  Fog  Heavy snow  Heavy precipitations  Wind > 20 kt
SIGMETs :     Misc.  Thunderstorms  Icing  Turbulence  Mountain Waves  Volcanic Ashes







- Airport Elevation : 39 ft
- IATA code : ANR


EBAW - Anvers / Antwerpen Deurne

CURRENT METAR :
  • 160720Z 22012KT 190V250 9999 BKN030 06/03 Q1012 NOSIG

EXPIRED METARs :
  • 160650Z 21012KT 9999 BKN031 06/03 Q1012 NOSIG
  • 160620Z 22011KT 190V250 9999 BKN032 07/03 Q1012 NOSIG
  • 160550Z 22009KT 9999 BKN032 07/03 Q1012 NOSIG
  • 160520Z AUTO 22009KT 190V250 9999 // OVC033/// 07/03 Q1012
  • 160450Z AUTO 22009KT 9999 // OVC030/// 07/04 Q1013

TAF TAF EBAW
Valid from the 16 at 06:00 until the 16 at 15:00 UTC


160515Z 1606/1615 21012KT 9999 SCT008 BKN012
TEMPO 1606/1607 4500 -RADZ BKN007
BECMG 1607/1609 SCT012 BKN020
No reported NOTAMs for that airfield.



MET'MAP, your aeronautical weather chart ! - Copyright ORBIFLY December 2007 - Disclaimer

ORBIFLY MET'MAP TEAM :

Programming & Development : Alexandra Zaïnal
Concept & Development : Baudouin d'Aumeries
Co-Development & Prog : Marc-Olivier Méhu
Technical & hardware support : Manuel Goepfert

Contact : metmap@orbifly.com




SOURCES & CREDITS :

   NOAA